Terminal Aerodrome Forecast
Issued by NWS

Home | Current Version | Previous Version | Graphics & Text | Print | Product List | Glossary On
Versions: 1 2 3 4 5 6 7 8 9 10 11 12
000
FTUS43 KBIS 131100
TAFJMS
TAF
KJMS 131139Z 1312/1412 34020G26KT P6SM OVC017
     FM131500 34024G30KT P6SM BKN020 OVC035
     FM132000 34020G28KT P6SM BKN035
     FM140200 34013KT P6SM BKN035=

USA.gov is the U.S. government's official web portal to all federal, state and local government web resources and services.